sensor_id;sensor_type;location;lat;lon;timestamp;pressure;altitude;pressure_sealevel;temperature
77789;BMP280;70537;44.384;0.512;2023-06-14T00:01:43;100798.44;;;17.95
77789;BMP280;70537;44.384;0.512;2023-06-14T00:04:11;100787.78;;;17.92
77789;BMP280;70537;44.384;0.512;2023-06-14T00:06:36;100791.13;;;17.85
77789;BMP280;70537;44.384;0.512;2023-06-14T00:09:02;100797.16;;;17.83
77789;BMP280;70537;44.384;0.512;2023-06-14T00:11:27;100785.78;;;17.79
77789;BMP280;70537;44.384;0.512;2023-06-14T00:13:53;100794.00;;;17.79
77789;BMP280;70537;44.384;0.512;2023-06-14T00:16:18;100779.34;;;17.77
77789;BMP280;70537;44.384;0.512;2023-06-14T00:18:45;100786.59;;;17.74
77789;BMP280;70537;44.384;0.512;2023-06-14T00:21:11;100792.66;;;17.72
77789;BMP280;70537;44.384;0.512;2023-06-14T00:23:37;100793.41;;;17.73
77789;BMP280;70537;44.384;0.512;2023-06-14T00:26:03;100792.84;;;17.74
77789;BMP280;70537;44.384;0.512;2023-06-14T00:28:29;100784.22;;;17.70
77789;BMP280;70537;44.384;0.512;2023-06-14T00:30:54;100799.00;;;17.67
77789;BMP280;70537;44.384;0.512;2023-06-14T00:33:20;100799.75;;;17.68
77789;BMP280;70537;44.384;0.512;2023-06-14T00:35:45;100797.84;;;17.63
77789;BMP280;70537;44.384;0.512;2023-06-14T00:38:12;100799.41;;;17.58
77789;BMP280;70537;44.384;0.512;2023-06-14T00:40:37;100807.22;;;17.67
77789;BMP280;70537;44.384;0.512;2023-06-14T00:43:03;100806.16;;;17.70
77789;BMP280;70537;44.384;0.512;2023-06-14T00:45:28;100802.50;;;17.68
77789;BMP280;70537;44.384;0.512;2023-06-14T00:47:56;100808.91;;;17.70
77789;BMP280;70537;44.384;0.512;2023-06-14T00:50:23;100810.38;;;17.71
77789;BMP280;70537;44.384;0.512;2023-06-14T00:52:49;100819.53;;;17.74
77789;BMP280;70537;44.384;0.512;2023-06-14T00:55:15;100817.25;;;17.78
77789;BMP280;70537;44.384;0.512;2023-06-14T00:57:41;100818.72;;;17.79
77789;BMP280;70537;44.384;0.512;2023-06-14T01:00:07;100813.44;;;17.81
77789;BMP280;70537;44.384;0.512;2023-06-14T01:02:36;100811.44;;;17.82
77789;BMP280;70537;44.384;0.512;2023-06-14T01:05:03;100806.69;;;17.82
77789;BMP280;70537;44.384;0.512;2023-06-14T01:10:19;100809.50;;;17.90
77789;BMP280;70537;44.384;0.512;2023-06-14T01:13:07;100827.56;;;17.98
77789;BMP280;70537;44.384;0.512;2023-06-14T01:15:37;100820.03;;;17.99
77789;BMP280;70537;44.384;0.512;2023-06-14T01:18:04;100819.94;;;18.05
77789;BMP280;70537;44.384;0.512;2023-06-14T01:20:31;100824.69;;;18.04
77789;BMP280;70537;44.384;0.512;2023-06-14T01:22:58;100810.56;;;18.00
77789;BMP280;70537;44.384;0.512;2023-06-14T01:25:24;100814.56;;;17.99
77789;BMP280;70537;44.384;0.512;2023-06-14T01:27:58;100803.56;;;17.99
77789;BMP280;70537;44.384;0.512;2023-06-14T01:30:25;100808.44;;;18.06
77789;BMP280;70537;44.384;0.512;2023-06-14T01:32:52;100806.00;;;18.03
77789;BMP280;70537;44.384;0.512;2023-06-14T01:35:18;100812.94;;;18.04
77789;BMP280;70537;44.384;0.512;2023-06-14T01:37:47;100819.94;;;18.05
77789;BMP280;70537;44.384;0.512;2023-06-14T01:40:14;100817.94;;;18.05
77789;BMP280;70537;44.384;0.512;2023-06-14T01:42:40;100821.97;;;18.04
77789;BMP280;70537;44.384;0.512;2023-06-14T01:45:07;100810.56;;;18.00
77789;BMP280;70537;44.384;0.512;2023-06-14T01:47:33;100813.31;;;18.00
77789;BMP280;70537;44.384;0.512;2023-06-14T01:50:01;100807.41;;;17.96
77789;BMP280;70537;44.384;0.512;2023-06-14T01:52:26;100807.91;;;17.94
77789;BMP280;70537;44.384;0.512;2023-06-14T01:54:52;100808.44;;;17.93
77789;BMP280;70537;44.384;0.512;2023-06-14T01:57:17;100813.91;;;17.93
77789;BMP280;70537;44.384;0.512;2023-06-14T01:59:43;100810.88;;;17.96
77789;BMP280;70537;44.384;0.512;2023-06-14T02:02:13;100805.81;;;18.01
77789;BMP280;70537;44.384;0.512;2023-06-14T02:04:39;100809.28;;;18.01
77789;BMP280;70537;44.384;0.512;2023-06-14T02:07:04;100801.22;;;18.03
77789;BMP280;70537;44.384;0.512;2023-06-14T02:09:30;100801.66;;;18.07
77789;BMP280;70537;44.384;0.512;2023-06-14T02:11:55;100817.09;;;18.10
77789;BMP280;70537;44.384;0.512;2023-06-14T02:14:21;100816.00;;;18.13
77789;BMP280;70537;44.384;0.512;2023-06-14T02:16:46;100807.75;;;18.13
77789;BMP280;70537;44.384;0.512;2023-06-14T02:19:18;100795.13;;;18.10
77789;BMP280;70537;44.384;0.512;2023-06-14T02:21:44;100801.97;;;18.17
77789;BMP280;70537;44.384;0.512;2023-06-14T02:24:10;100805.63;;;18.19
77789;BMP280;70537;44.384;0.512;2023-06-14T02:26:36;100801.41;;;18.18
77789;BMP280;70537;44.384;0.512;2023-06-14T02:29:06;100800.88;;;18.20
77789;BMP280;70537;44.384;0.512;2023-06-14T02:31:34;100800.88;;;18.20
77789;BMP280;70537;44.384;0.512;2023-06-14T02:34:00;100796.53;;;18.25
77789;BMP280;70537;44.384;0.512;2023-06-14T02:36:25;100802.03;;;18.25
77789;BMP280;70537;44.384;0.512;2023-06-14T02:38:51;100808.47;;;18.27
77789;BMP280;70537;44.384;0.512;2023-06-14T02:41:19;100806.47;;;18.28
77789;BMP280;70537;44.384;0.512;2023-06-14T02:43:44;100803.53;;;18.26
77789;BMP280;70537;44.384;0.512;2023-06-14T02:46:10;100802.66;;;18.31
77789;BMP280;70537;44.384;0.512;2023-06-14T02:48:36;100802.84;;;18.33
77789;BMP280;70537;44.384;0.512;2023-06-14T02:51:02;100797.91;;;18.31
77789;BMP280;70537;44.384;0.512;2023-06-14T02:53:27;100811.28;;;18.35
77789;BMP280;70537;44.384;0.512;2023-06-14T02:55:53;100813.72;;;18.38
77789;BMP280;70537;44.384;0.512;2023-06-14T02:58:21;100813.19;;;18.40
77789;BMP280;70537;44.384;0.512;2023-06-14T03:00:46;100814.84;;;18.43
77789;BMP280;70537;44.384;0.512;2023-06-14T03:03:12;100811.47;;;18.37
77789;BMP280;70537;44.384;0.512;2023-06-14T03:05:44;100805.81;;;18.35
77789;BMP280;70537;44.384;0.512;2023-06-14T03:08:15;100808.72;;;18.37
77789;BMP280;70537;44.384;0.512;2023-06-14T03:10:48;100817.19;;;18.39
77789;BMP280;70537;44.384;0.512;2023-06-14T03:13:15;100812.97;;;18.38
77789;BMP280;70537;44.384;0.512;2023-06-14T03:15:44;100807.47;;;18.38
77789;BMP280;70537;44.384;0.512;2023-06-14T03:18:10;100803.59;;;18.33
77789;BMP280;70537;44.384;0.512;2023-06-14T03:20:37;100814.44;;;18.39
77789;BMP280;70537;44.384;0.512;2023-06-14T03:23:03;100819.00;;;18.36
77789;BMP280;70537;44.384;0.512;2023-06-14T03:25:29;100813.50;;;18.36
77789;BMP280;70537;44.384;0.512;2023-06-14T03:27:55;100831.34;;;18.43
77789;BMP280;70537;44.384;0.512;2023-06-14T03:30:21;100826.59;;;18.43
77789;BMP280;70537;44.384;0.512;2023-06-14T03:32:46;100833.75;;;18.46
77789;BMP280;70537;44.384;0.512;2023-06-14T03:35:12;100829.72;;;18.47
77789;BMP280;70537;44.384;0.512;2023-06-14T03:37:45;100833.44;;;18.50
77789;BMP280;70537;44.384;0.512;2023-06-14T03:40:12;100840.09;;;18.55
77789;BMP280;70537;44.384;0.512;2023-06-14T03:42:38;100829.41;;;18.51
77789;BMP280;70537;44.384;0.512;2023-06-14T03:45:04;100835.34;;;18.55
77789;BMP280;70537;44.384;0.512;2023-06-14T03:47:30;100837.53;;;18.57
77789;BMP280;70537;44.384;0.512;2023-06-14T03:49:56;100836.78;;;18.56
77789;BMP280;70537;44.384;0.512;2023-06-14T03:52:21;100845.25;;;18.58
77789;BMP280;70537;44.384;0.512;2023-06-14T03:54:48;100837.00;;;18.58
77789;BMP280;70537;44.384;0.512;2023-06-14T03:57:14;100840.50;;;18.59
77789;BMP280;70537;44.384;0.512;2023-06-14T03:59:40;100837.34;;;18.55
77789;BMP280;70537;44.384;0.512;2023-06-14T04:02:06;100834.59;;;18.55
77789;BMP280;70537;44.384;0.512;2023-06-14T04:04:32;100839.75;;;18.58
77789;BMP280;70537;44.384;0.512;2023-06-14T04:06:58;100837.94;;;18.61
77789;BMP280;70537;44.384;0.512;2023-06-14T04:09:25;100838.16;;;18.63
77789;BMP280;70537;44.384;0.512;2023-06-14T04:11:54;100852.81;;;18.65
77789;BMP280;70537;44.384;0.512;2023-06-14T04:14:20;100855.56;;;18.65
77789;BMP280;70537;44.384;0.512;2023-06-14T04:16:49;100846.03;;;18.66
77789;BMP280;70537;44.384;0.512;2023-06-14T04:19:15;100852.16;;;18.73
77789;BMP280;70537;44.384;0.512;2023-06-14T04:21:41;100856.72;;;18.70
77789;BMP280;70537;44.384;0.512;2023-06-14T04:24:07;100854.19;;;18.72
77789;BMP280;70537;44.384;0.512;2023-06-14T04:26:38;100859.34;;;18.76
77789;BMP280;70537;44.384;0.512;2023-06-14T04:29:04;100860.59;;;18.75
77789;BMP280;70537;44.384;0.512;2023-06-14T04:31:31;100850.31;;;18.75
77789;BMP280;70537;44.384;0.512;2023-06-14T04:33:59;100866.53;;;18.79
77789;BMP280;70537;44.384;0.512;2023-06-14T04:36:25;100858.28;;;18.79
77789;BMP280;70537;44.384;0.512;2023-06-14T04:38:53;100868.22;;;18.82
77789;BMP280;70537;44.384;0.512;2023-06-14T04:41:22;100865.09;;;18.85
77789;BMP280;70537;44.384;0.512;2023-06-14T04:43:49;100863.22;;;18.80
77789;BMP280;70537;44.384;0.512;2023-06-14T04:46:15;100864.97;;;18.91
77789;BMP280;70537;44.384;0.512;2023-06-14T04:48:41;100863.09;;;18.86
77789;BMP280;70537;44.384;0.512;2023-06-14T04:51:08;100869.19;;;18.92
77789;BMP280;70537;44.384;0.512;2023-06-14T04:53:34;100864.66;;;18.94
77789;BMP280;70537;44.384;0.512;2023-06-14T04:56:00;100872.94;;;19.02
77789;BMP280;70537;44.384;0.512;2023-06-14T04:58:27;100876.28;;;19.08
77789;BMP280;70537;44.384;0.512;2023-06-14T05:00:54;100878.19;;;19.13
77789;BMP280;70537;44.384;0.512;2023-06-14T05:03:21;100882.81;;;19.18
77789;BMP280;70537;44.384;0.512;2023-06-14T05:05:48;100885.03;;;19.20
77789;BMP280;70537;44.384;0.512;2023-06-14T05:08:13;100883.94;;;19.23
77789;BMP280;70537;44.384;0.512;2023-06-14T05:10:39;100888.00;;;19.30
77789;BMP280;70537;44.384;0.512;2023-06-14T05:13:04;100888.59;;;19.36
77789;BMP280;70537;44.384;0.512;2023-06-14T05:15:30;100892.47;;;19.40
77789;BMP280;70537;44.384;0.512;2023-06-14T05:17:55;100896.03;;;19.49
77789;BMP280;70537;44.384;0.512;2023-06-14T05:20:22;100901.00;;;19.50
77789;BMP280;70537;44.384;0.512;2023-06-14T05:22:52;100902.19;;;19.62
77789;BMP280;70537;44.384;0.512;2023-06-14T05:25:21;100902.31;;;19.57
77789;BMP280;70537;44.384;0.512;2023-06-14T05:27:47;100900.28;;;19.57
77789;BMP280;70537;44.384;0.512;2023-06-14T05:30:14;100913.78;;;19.68
77789;BMP280;70537;44.384;0.512;2023-06-14T05:32:40;100902.41;;;19.72
77789;BMP280;70537;44.384;0.512;2023-06-14T05:35:06;100912.91;;;19.74
77789;BMP280;70537;44.384;0.512;2023-06-14T05:37:31;100912.56;;;19.77
77789;BMP280;70537;44.384;0.512;2023-06-14T05:39:57;100915.31;;;19.77
77789;BMP280;70537;44.384;0.512;2023-06-14T05:42:22;100913.63;;;19.74
77789;BMP280;70537;44.384;0.512;2023-06-14T05:44:48;100914.91;;;19.73
77789;BMP280;70537;44.384;0.512;2023-06-14T05:47:13;100906.66;;;19.73
77789;BMP280;70537;44.384;0.512;2023-06-14T05:49:39;100913.28;;;19.78
77789;BMP280;70537;44.384;0.512;2023-06-14T05:52:05;100909.25;;;19.79
77789;BMP280;70537;44.384;0.512;2023-06-14T05:54:31;100915.31;;;19.77
77789;BMP280;70537;44.384;0.512;2023-06-14T05:56:56;100913.41;;;19.72
77789;BMP280;70537;44.384;0.512;2023-06-14T05:59:27;100921.56;;;19.78
77789;BMP280;70537;44.384;0.512;2023-06-14T06:01:52;100928.91;;;19.83
77789;BMP280;70537;44.384;0.512;2023-06-14T06:04:18;100920.09;;;19.77
77789;BMP280;70537;44.384;0.512;2023-06-14T06:06:44;100918.06;;;19.77
77789;BMP280;70537;44.384;0.512;2023-06-14T06:09:10;100925.72;;;19.71
77789;BMP280;70537;44.384;0.512;2023-06-14T06:11:35;100927.97;;;19.73
77789;BMP280;70537;44.384;0.512;2023-06-14T06:14:01;100928.69;;;19.73
77789;BMP280;70537;44.384;0.512;2023-06-14T06:16:26;100932.22;;;19.81
77789;BMP280;70537;44.384;0.512;2023-06-14T06:18:52;100922.13;;;19.84
77789;BMP280;70537;44.384;0.512;2023-06-14T06:21:17;100933.00;;;19.89
77789;BMP280;70537;44.384;0.512;2023-06-14T06:23:43;100932.09;;;19.94
77789;BMP280;70537;44.384;0.512;2023-06-14T06:26:08;100942.41;;;20.02
77789;BMP280;70537;44.384;0.512;2023-06-14T06:28:34;100938.78;;;20.07
77789;BMP280;70537;44.384;0.512;2023-06-14T06:31:00;100951.44;;;20.02
77789;BMP280;70537;44.384;0.512;2023-06-14T06:33:25;100956.00;;;20.00
77789;BMP280;70537;44.384;0.512;2023-06-14T06:35:51;100966.25;;;19.91
77789;BMP280;70537;44.384;0.512;2023-06-14T06:38:16;100966.59;;;19.88
77789;BMP280;70537;44.384;0.512;2023-06-14T06:40:44;100973.94;;;19.85
77789;BMP280;70537;44.384;0.512;2023-06-14T06:43:09;100971.41;;;19.95
77789;BMP280;70537;44.384;0.512;2023-06-14T06:45:38;100972.72;;;20.02
77789;BMP280;70537;44.384;0.512;2023-06-14T06:48:04;100977.94;;;20.13
77789;BMP280;70537;44.384;0.512;2023-06-14T06:50:30;100980.50;;;20.18
77789;BMP280;70537;44.384;0.512;2023-06-14T06:52:55;100979.78;;;20.18
77789;BMP280;70537;44.384;0.512;2023-06-14T06:55:21;100978.34;;;20.25
77789;BMP280;70537;44.384;0.512;2023-06-14T06:57:46;100973.97;;;20.29
77789;BMP280;70537;44.384;0.512;2023-06-14T07:00:12;100991.63;;;20.41
77789;BMP280;70537;44.384;0.512;2023-06-14T07:02:38;100993.69;;;20.49
77789;BMP280;70537;44.384;0.512;2023-06-14T07:05:03;100989.66;;;20.50
77789;BMP280;70537;44.384;0.512;2023-06-14T07:07:29;101002.56;;;20.55
77789;BMP280;70537;44.384;0.512;2023-06-14T07:09:55;101000.72;;;20.57
77789;BMP280;70537;44.384;0.512;2023-06-14T07:12:23;101004.16;;;20.50
77789;BMP280;70537;44.384;0.512;2023-06-14T07:14:48;100998.66;;;20.50
77789;BMP280;70537;44.384;0.512;2023-06-14T07:17:14;101013.22;;;20.58
77789;BMP280;70537;44.384;0.512;2023-06-14T07:19:39;101006.59;;;20.61
77789;BMP280;70537;44.384;0.512;2023-06-14T07:22:05;101010.84;;;20.70
77789;BMP280;70537;44.384;0.512;2023-06-14T07:24:30;101015.50;;;20.83
77789;BMP280;70537;44.384;0.512;2023-06-14T07:26:56;101010.75;;;20.99
77789;BMP280;70537;44.384;0.512;2023-06-14T07:29:21;101003.22;;;21.30
77789;BMP280;70537;44.384;0.512;2023-06-14T07:31:47;100997.50;;;21.51
77789;BMP280;70537;44.384;0.512;2023-06-14T07:34:12;101007.25;;;21.59
77789;BMP280;70537;44.384;0.512;2023-06-14T07:36:38;101003.19;;;21.68
77789;BMP280;70537;44.384;0.512;2023-06-14T07:39:04;100998.78;;;21.50
77789;BMP280;70537;44.384;0.512;2023-06-14T07:41:32;101003.34;;;21.70
77789;BMP280;70537;44.384;0.512;2023-06-14T07:43:59;101000.72;;;21.95
77789;BMP280;70537;44.384;0.512;2023-06-14T07:46:24;101011.72;;;22.18
77789;BMP280;70537;44.384;0.512;2023-06-14T07:48:50;100997.97;;;21.95
77789;BMP280;70537;44.384;0.512;2023-06-14T07:51:15;101018.38;;;22.07
77789;BMP280;70537;44.384;0.512;2023-06-14T07:53:40;101015.19;;;22.18
77789;BMP280;70537;44.384;0.512;2023-06-14T07:56:07;101021.31;;;22.17
77789;BMP280;70537;44.384;0.512;2023-06-14T07:58:32;101019.31;;;22.02
77789;BMP280;70537;44.384;0.512;2023-06-14T08:00:58;101018.03;;;21.95
77789;BMP280;70537;44.384;0.512;2023-06-14T08:03:24;101021.88;;;22.08
77789;BMP280;70537;44.384;0.512;2023-06-14T08:05:50;101029.75;;;22.27
77789;BMP280;70537;44.384;0.512;2023-06-14T08:08:16;101032.56;;;22.52
77789;BMP280;70537;44.384;0.512;2023-06-14T08:10:44;101032.16;;;22.88
77789;BMP280;70537;44.384;0.512;2023-06-14T08:13:10;101038.63;;;22.90
77789;BMP280;70537;44.384;0.512;2023-06-14T08:15:35;101033.94;;;23.01
77789;BMP280;70537;44.384;0.512;2023-06-14T08:18:01;101032.97;;;22.81
77789;BMP280;70537;44.384;0.512;2023-06-14T08:20:27;101034.91;;;22.63
77789;BMP280;70537;44.384;0.512;2023-06-14T08:22:52;101038.78;;;22.67
77789;BMP280;70537;44.384;0.512;2023-06-14T08:25:21;101041.13;;;22.79
77789;BMP280;70537;44.384;0.512;2023-06-14T08:27:47;101039.78;;;23.12
77789;BMP280;70537;44.384;0.512;2023-06-14T08:30:13;101042.38;;;23.53
77789;BMP280;70537;44.384;0.512;2023-06-14T08:32:38;101035.06;;;23.82
77789;BMP280;70537;44.384;0.512;2023-06-14T08:35:04;101041.59;;;23.94
77789;BMP280;70537;44.384;0.512;2023-06-14T08:37:30;101045.09;;;23.60
77789;BMP280;70537;44.384;0.512;2023-06-14T08:39:56;101044.25;;;23.85
77789;BMP280;70537;44.384;0.512;2023-06-14T08:42:23;101049.00;;;24.09
77789;BMP280;70537;44.384;0.512;2023-06-14T08:44:49;101053.06;;;24.08
77789;BMP280;70537;44.384;0.512;2023-06-14T08:47:15;101052.47;;;24.10
77789;BMP280;70537;44.384;0.512;2023-06-14T08:49:47;101055.97;;;24.10
77789;BMP280;70537;44.384;0.512;2023-06-14T08:52:15;101056.41;;;24.07
77789;BMP280;70537;44.384;0.512;2023-06-14T08:54:45;101056.88;;;23.95
77789;BMP280;70537;44.384;0.512;2023-06-14T08:57:14;101058.53;;;23.98
77789;BMP280;70537;44.384;0.512;2023-06-14T08:59:45;101077.56;;;24.29
77789;BMP280;70537;44.384;0.512;2023-06-14T09:02:12;101078.56;;;24.68
77789;BMP280;70537;44.384;0.512;2023-06-14T09:04:39;101067.19;;;24.74
77789;BMP280;70537;44.384;0.512;2023-06-14T09:07:06;101066.03;;;24.77
77789;BMP280;70537;44.384;0.512;2023-06-14T09:09:32;101076.81;;;24.73
77789;BMP280;70537;44.384;0.512;2023-06-14T09:11:57;101084.91;;;24.88
77789;BMP280;70537;44.384;0.512;2023-06-14T09:14:26;101083.31;;;24.58
77789;BMP280;70537;44.384;0.512;2023-06-14T09:16:54;101080.50;;;24.48
77789;BMP280;70537;44.384;0.512;2023-06-14T09:19:24;101083.78;;;24.64
77789;BMP280;70537;44.384;0.512;2023-06-14T09:21:50;101085.97;;;24.93
77789;BMP280;70537;44.384;0.512;2023-06-14T09:24:17;101087.81;;;25.27
77789;BMP280;70537;44.384;0.512;2023-06-14T09:26:42;101093.22;;;24.88
77789;BMP280;70537;44.384;0.512;2023-06-14T09:29:09;101091.09;;;25.52
77789;BMP280;70537;44.384;0.512;2023-06-14T09:31:35;101086.47;;;25.94
77789;BMP280;70537;44.384;0.512;2023-06-14T09:34:02;101096.25;;;26.04
77789;BMP280;70537;44.384;0.512;2023-06-14T09:36:28;101083.94;;;25.88
77789;BMP280;70537;44.384;0.512;2023-06-14T09:39:02;101085.44;;;25.60
77789;BMP280;70537;44.384;0.512;2023-06-14T09:41:35;101094.50;;;25.90
77789;BMP280;70537;44.384;0.512;2023-06-14T09:44:03;101091.66;;;26.28
77789;BMP280;70537;44.384;0.512;2023-06-14T09:46:29;101083.75;;;26.44
77789;BMP280;70537;44.384;0.512;2023-06-14T09:48:58;101089.38;;;25.86
77789;BMP280;70537;44.384;0.512;2023-06-14T09:51:25;101094.50;;;25.80
77789;BMP280;70537;44.384;0.512;2023-06-14T09:53:51;101097.84;;;25.78
77789;BMP280;70537;44.384;0.512;2023-06-14T09:56:27;101097.41;;;26.01
77789;BMP280;70537;44.384;0.512;2023-06-14T09:58:55;101104.81;;;26.47
77789;BMP280;70537;44.384;0.512;2023-06-14T10:01:22;101098.88;;;26.72
77789;BMP280;70537;44.384;0.512;2023-06-14T10:03:50;101100.38;;;26.95
77789;BMP280;70537;44.384;0.512;2023-06-14T10:06:17;101104.34;;;26.91
77789;BMP280;70537;44.384;0.512;2023-06-14T10:08:43;101106.28;;;26.48
77789;BMP280;70537;44.384;0.512;2023-06-14T10:11:09;101102.94;;;26.30
77789;BMP280;70537;44.384;0.512;2023-06-14T10:13:36;101097.75;;;26.56
77789;BMP280;70537;44.384;0.512;2023-06-14T10:18:49;101103.25;;;27.06
77789;BMP280;70537;44.384;0.512;2023-06-14T10:23:48;101099.22;;;27.62
77789;BMP280;70537;44.384;0.512;2023-06-14T10:26:22;101104.94;;;27.42
77789;BMP280;70537;44.384;0.512;2023-06-14T10:29:00;101099.22;;;27.62
77789;BMP280;70537;44.384;0.512;2023-06-14T10:31:47;101096.81;;;27.68
77789;BMP280;70537;44.384;0.512;2023-06-14T10:34:21;101093.00;;;27.85
77789;BMP280;70537;44.384;0.512;2023-06-14T10:37:07;101095.00;;;28.06
77789;BMP280;70537;44.384;0.512;2023-06-14T10:39:43;101085.56;;;27.78
77789;BMP280;70537;44.384;0.512;2023-06-14T10:42:11;101094.94;;;27.82
77789;BMP280;70537;44.384;0.512;2023-06-14T10:49:44;101098.09;;;28.33
77789;BMP280;70537;44.384;0.512;2023-06-14T10:52:14;101091.16;;;28.22
77789;BMP280;70537;44.384;0.512;2023-06-14T10:55:05;101079.16;;;28.20
77789;BMP280;70537;44.384;0.512;2023-06-14T10:57:34;101088.97;;;28.21
77789;BMP280;70537;44.384;0.512;2023-06-14T11:00:00;101076.09;;;28.16
77789;BMP280;70537;44.384;0.512;2023-06-14T11:05:14;101067.63;;;28.49
77789;BMP280;70537;44.384;0.512;2023-06-14T11:07:58;101073.22;;;28.61
77789;BMP280;70537;44.384;0.512;2023-06-14T11:12:59;101074.06;;;28.75
77789;BMP280;70537;44.384;0.512;2023-06-14T11:15:31;101070.44;;;28.61
77789;BMP280;70537;44.384;0.512;2023-06-14T11:17:57;101071.88;;;28.85
77789;BMP280;70537;44.384;0.512;2023-06-14T11:20:26;101064.97;;;28.86
77789;BMP280;70537;44.384;0.512;2023-06-14T11:22:52;101060.31;;;29.02
77789;BMP280;70537;44.384;0.512;2023-06-14T11:25:18;101062.75;;;28.96
77789;BMP280;70537;44.384;0.512;2023-06-14T11:27:44;101050.22;;;28.97
77789;BMP280;70537;44.384;0.512;2023-06-14T11:30:11;101055.63;;;28.46
77789;BMP280;70537;44.384;0.512;2023-06-14T11:32:39;101062.53;;;28.10
77789;BMP280;70537;44.384;0.512;2023-06-14T11:35:06;101054.78;;;28.67
77789;BMP280;70537;44.384;0.512;2023-06-14T11:37:32;101041.53;;;28.68
77789;BMP280;70537;44.384;0.512;2023-06-14T11:40:07;101059.03;;;28.68
77789;BMP280;70537;44.384;0.512;2023-06-14T11:42:34;101044.81;;;28.64
77789;BMP280;70537;44.384;0.512;2023-06-14T11:45:00;101046.41;;;28.32
77789;BMP280;70537;44.384;0.512;2023-06-14T11:47:36;101055.97;;;28.29
77789;BMP280;70537;44.384;0.512;2023-06-14T11:50:03;101057.44;;;28.30
77789;BMP280;70537;44.384;0.512;2023-06-14T11:52:29;101062.28;;;28.65
77789;BMP280;70537;44.384;0.512;2023-06-14T11:54:56;101061.38;;;29.09
77789;BMP280;70537;44.384;0.512;2023-06-14T11:57:22;101062.69;;;29.20
77789;BMP280;70537;44.384;0.512;2023-06-14T11:59:48;101066.63;;;29.03
77789;BMP280;70537;44.384;0.512;2023-06-14T12:02:15;101062.16;;;28.86
77789;BMP280;70537;44.384;0.512;2023-06-14T12:04:41;101058.91;;;29.52
77789;BMP280;70537;44.384;0.512;2023-06-14T12:12:23;101051.00;;;30.13
77789;BMP280;70537;44.384;0.512;2023-06-14T12:14:51;101048.19;;;30.13
77789;BMP280;70537;44.384;0.512;2023-06-14T12:17:17;101044.50;;;30.23
77789;BMP280;70537;44.384;0.512;2023-06-14T12:19:44;101051.88;;;29.26
77789;BMP280;70537;44.384;0.512;2023-06-14T12:22:11;101059.28;;;28.72
77789;BMP280;70537;44.384;0.512;2023-06-14T12:24:37;101067.31;;;29.52
77789;BMP280;70537;44.384;0.512;2023-06-14T12:27:03;101061.19;;;29.81
77789;BMP280;70537;44.384;0.512;2023-06-14T12:29:31;101065.34;;;30.33
77789;BMP280;70537;44.384;0.512;2023-06-14T12:31:57;101063.06;;;30.71
77789;BMP280;70537;44.384;0.512;2023-06-14T12:34:26;101050.69;;;30.76
77789;BMP280;70537;44.384;0.512;2023-06-14T12:36:55;101061.78;;;30.88
77789;BMP280;70537;44.384;0.512;2023-06-14T12:39:21;101064.91;;;30.80
77789;BMP280;70537;44.384;0.512;2023-06-14T12:41:47;101065.41;;;30.90
77789;BMP280;70537;44.384;0.512;2023-06-14T12:44:14;101059.69;;;30.88
77789;BMP280;70537;44.384;0.512;2023-06-14T12:46:41;101064.53;;;31.01
77789;BMP280;70537;44.384;0.512;2023-06-14T12:49:10;101058.31;;;31.03
77789;BMP280;70537;44.384;0.512;2023-06-14T12:51:40;101069.16;;;31.24
77789;BMP280;70537;44.384;0.512;2023-06-14T12:54:05;101063.41;;;31.52
77789;BMP280;70537;44.384;0.512;2023-06-14T12:56:31;101066.22;;;31.36
77789;BMP280;70537;44.384;0.512;2023-06-14T12:58:58;101071.69;;;31.34
77789;BMP280;70537;44.384;0.512;2023-06-14T13:01:23;101059.63;;;31.61
77789;BMP280;70537;44.384;0.512;2023-06-14T13:03:49;101059.94;;;31.38
77789;BMP280;70537;44.384;0.512;2023-06-14T13:06:16;101072.13;;;31.28
77789;BMP280;70537;44.384;0.512;2023-06-14T13:08:41;101059.25;;;31.23
77789;BMP280;70537;44.384;0.512;2023-06-14T13:11:07;101066.25;;;31.22
77789;BMP280;70537;44.384;0.512;2023-06-14T13:13:32;101056.72;;;31.14
77789;BMP280;70537;44.384;0.512;2023-06-14T13:15:58;101061.50;;;31.41
77789;BMP280;70537;44.384;0.512;2023-06-14T13:18:24;101063.94;;;31.48
77789;BMP280;70537;44.384;0.512;2023-06-14T13:20:49;101060.19;;;31.73
77789;BMP280;70537;44.384;0.512;2023-06-14T13:23:15;101059.75;;;31.33
77789;BMP280;70537;44.384;0.512;2023-06-14T13:25:41;101069.41;;;31.60
77789;BMP280;70537;44.384;0.512;2023-06-14T13:28:07;101070.66;;;31.57
77789;BMP280;70537;44.384;0.512;2023-06-14T13:30:33;101068.56;;;31.42
77789;BMP280;70537;44.384;0.512;2023-06-14T13:32:59;101067.63;;;31.98
77789;BMP280;70537;44.384;0.512;2023-06-14T13:35:25;101075.66;;;31.90
77789;BMP280;70537;44.384;0.512;2023-06-14T13:37:51;101077.13;;;32.07
77789;BMP280;70537;44.384;0.512;2023-06-14T13:40:17;101070.56;;;32.34
77789;BMP280;70537;44.384;0.512;2023-06-14T13:42:43;101077.75;;;32.21
77789;BMP280;70537;44.384;0.512;2023-06-14T13:45:10;101078.69;;;32.59
77789;BMP280;70537;44.384;0.512;2023-06-14T13:47:36;101064.50;;;32.39
77789;BMP280;70537;44.384;0.512;2023-06-14T13:50:02;101079.63;;;32.48
77789;BMP280;70537;44.384;0.512;2023-06-14T13:52:28;101072.44;;;32.45
77789;BMP280;70537;44.384;0.512;2023-06-14T13:54:53;101071.34;;;32.86
77789;BMP280;70537;44.384;0.512;2023-06-14T13:57:19;101072.88;;;32.89
77789;BMP280;70537;44.384;0.512;2023-06-14T13:59:45;101072.19;;;33.08
77789;BMP280;70537;44.384;0.512;2023-06-14T14:02:11;101085.53;;;32.72
77789;BMP280;70537;44.384;0.512;2023-06-14T14:04:37;101088.72;;;32.31
77789;BMP280;70537;44.384;0.512;2023-06-14T14:07:04;101077.03;;;32.05
77789;BMP280;70537;44.384;0.512;2023-06-14T14:09:31;101086.19;;;32.05
77789;BMP280;70537;44.384;0.512;2023-06-14T14:11:58;101079.53;;;32.30
77789;BMP280;70537;44.384;0.512;2023-06-14T14:14:23;101071.25;;;32.84
77789;BMP280;70537;44.384;0.512;2023-06-14T14:16:49;101076.81;;;32.66
77789;BMP280;70537;44.384;0.512;2023-06-14T14:19:17;101074.94;;;32.88